Time;durP1;ratioP1;P1;durP2;ratioP2;P2;SDS_P1;SDS_P2;PMS_P1;PMS_P2;Temp;Humidity;BMP_temperature;BMP_pressure;BME280_temperature;BME280_humidity;BME280_pressure;Samples;Min_cycle;Max_cycle;Signal;HPM_P1;HPM_P2
2022/06/28 00:00:37;;;;;;;4.50;2.33;;;;;;;22.61;56.36;98385.63;8386076;28;20242;-80
2022/06/28 00:04:40;;;;;;;5.40;2.27;;;;;;;22.65;56.33;98392.31;8448190;28;20234;-79
2022/06/28 00:08:43;;;;;;;4.33;2.47;;;;;;;22.61;55.85;98383.81;8448359;28;20239;-80
2022/06/28 00:12:48;;;;;;;3.93;2.47;;;;;;;22.57;55.93;98379.78;8448065;28;20238;-80
2022/06/28 00:16:52;;;;;;;4.00;2.37;;;;;;;22.52;56.49;98376.69;8447835;28;20233;-79
2022/06/28 00:20:55;;;;;;;3.97;2.30;;;;;;;22.47;56.42;98375.44;8447618;28;20237;-80
2022/06/28 00:24:57;;;;;;;2.50;2.20;;;;;;;22.37;56.66;98373.59;8439859;28;20239;-80
2022/06/28 00:29:01;;;;;;;4.37;2.40;;;;;;;22.43;56.35;98380.16;8413972;28;20416;-80
2022/06/28 00:33:04;;;;;;;3.57;2.20;;;;;;;22.33;56.92;98380.13;8413994;28;20223;-80
2022/06/28 00:37:07;;;;;;;3.73;2.40;;;;;;;22.37;56.78;98375.38;8413458;28;20253;-80
2022/06/28 00:41:10;;;;;;;3.90;2.37;;;;;;;22.31;56.97;98366.19;8413674;28;20305;-82
2022/06/28 00:45:15;;;;;;;3.30;2.33;;;;;;;22.29;56.67;98362.88;8413517;28;20235;-82
2022/06/28 00:49:18;;;;;;;6.33;2.50;;;;;;;22.29;56.99;98365.50;8413688;28;20231;-82
2022/06/28 00:53:21;;;;;;;5.30;2.63;;;;;;;22.40;56.83;98375.13;8413706;28;20424;-82
2022/06/28 00:57:24;;;;;;;3.37;2.40;;;;;;;22.24;56.89;98376.44;8413074;28;20230;-81
2022/06/28 01:01:29;;;;;;;4.13;2.40;;;;;;;22.22;56.97;98374.91;8413153;28;20231;-81
2022/06/28 01:05:32;;;;;;;4.10;2.47;;;;;;;22.12;57.65;98381.91;8413216;28;20310;-82
2022/06/28 01:09:35;;;;;;;6.53;2.70;;;;;;;22.01;57.57;98380.22;8412995;28;20238;-81
2022/06/28 01:13:38;;;;;;;6.03;2.57;;;;;;;22.02;57.89;98371.31;8412674;28;20230;-81
2022/06/28 01:17:42;;;;;;;4.50;2.60;;;;;;;22.03;57.48;98378.28;8412348;28;20243;-81
2022/06/28 01:21:47;;;;;;;3.90;2.53;;;;;;;21.97;57.82;98395.44;8412864;28;20509;-81
2022/06/28 01:25:52;;;;;;;3.90;2.47;;;;;;;21.92;58.33;98392.34;8412948;28;20241;-82
2022/06/28 01:29:54;;;;;;;4.97;2.80;;;;;;;21.96;57.97;98404.31;8413000;28;20227;-81
2022/06/28 01:33:58;;;;;;;7.10;2.90;;;;;;;21.98;58.09;98418.19;8412576;28;20227;-81
2022/06/28 01:38:02;;;;;;;3.17;2.57;;;;;;;21.80;58.67;98431.13;8412698;28;20234;-81
2022/06/28 01:42:07;;;;;;;8.27;2.80;;;;;;;21.72;58.47;98430.91;8413576;28;20250;-81
2022/06/28 01:46:10;;;;;;;7.57;2.60;;;;;;;21.74;58.64;98429.03;8413182;28;20428;-81
2022/06/28 01:50:13;;;;;;;5.77;2.90;;;;;;;21.75;58.50;98438.59;8413207;28;20226;-81
2022/06/28 01:54:16;;;;;;;5.57;3.07;;;;;;;21.70;58.46;98427.56;8413212;28;20235;-81
2022/06/28 01:58:21;;;;;;;6.43;3.57;;;;;;;21.63;58.61;98432.53;8413072;28;20234;-81
2022/06/28 02:02:24;;;;;;;6.53;2.90;;;;;;;21.66;59.03;98440.16;8412513;28;20223;-81
2022/06/28 02:06:26;;;;;;;4.63;3.00;;;;;;;21.60;59.07;98437.22;8412855;28;20454;-81
2022/06/28 02:10:29;;;;;;;6.60;3.17;;;;;;;21.63;58.72;98427.25;8412684;28;20258;-81
2022/06/28 02:14:34;;;;;;;9.10;3.10;;;;;;;21.65;58.82;98430.59;8412934;28;20238;-81
2022/06/28 02:18:36;;;;;;;4.13;3.37;;;;;;;21.61;59.07;98431.81;8412819;28;20234;-80
2022/06/28 02:22:39;;;;;;;4.97;3.20;;;;;;;21.64;59.09;98425.44;8412839;28;20243;-79
2022/06/28 02:26:43;;;;;;;4.70;2.77;;;;;;;21.60;59.22;98427.50;8415367;28;20235;-81
2022/06/28 02:30:47;;;;;;;4.80;3.17;;;;;;;21.67;59.19;98425.22;8418724;28;20222;-80
2022/06/28 02:43:27;;;;;;;5.27;3.00;;;;;;;21.65;59.39;98425.34;8384514;28;20238;-80
2022/06/28 02:47:31;;;;;;;5.43;3.00;;;;;;;21.56;59.14;98423.44;8417917;28;20234;-80
2022/06/28 02:51:34;;;;;;;3.47;2.70;;;;;;;21.60;59.01;98418.75;8418323;28;20233;-81
2022/06/28 02:55:37;;;;;;;3.80;2.93;;;;;;;21.51;59.44;98409.81;8418035;28;20235;-80
2022/06/28 02:59:40;;;;;;;5.10;3.00;;;;;;;21.47;59.41;98421.56;8417938;28;20540;-80
2022/06/28 03:03:44;;;;;;;6.50;3.40;;;;;;;21.46;59.54;98423.38;8417376;28;20234;-80
2022/06/28 03:07:47;;;;;;;4.97;2.87;;;;;;;21.51;59.38;98422.97;8417612;28;20254;-80
2022/06/28 03:11:50;;;;;;;6.53;3.30;;;;;;;21.45;59.78;98419.06;8417535;28;20279;-81
2022/06/28 03:15:53;;;;;;;5.30;3.37;;;;;;;21.39;59.35;98422.16;8417226;28;20422;-81
2022/06/28 03:19:57;;;;;;;3.33;3.03;;;;;;;21.35;59.71;98433.91;8417282;28;20230;-80
2022/06/28 03:24:00;;;;;;;7.30;3.47;;;;;;;21.27;59.85;98431.06;8416989;28;20233;-80
2022/06/28 03:28:04;;;;;;;5.00;3.23;;;;;;;21.30;59.39;98433.44;8416823;28;20235;-80
2022/06/28 03:32:07;;;;;;;5.33;3.60;;;;;;;21.17;59.96;98436.25;8416551;28;20227;-80
2022/06/28 03:36:11;;;;;;;8.53;3.80;;;;;;;21.18;59.72;98439.72;8416793;28;20231;-81
2022/06/28 03:40:15;;;;;;;4.87;3.30;;;;;;;21.18;59.86;98443.19;8415713;28;20304;-81
2022/06/28 03:44:17;;;;;;;5.60;3.60;;;;;;;21.11;59.78;98434.09;8415516;28;20230;-81
2022/06/28 03:48:20;;;;;;;4.30;3.40;;;;;;;21.16;59.89;98433.75;8415401;28;20269;-81
2022/06/28 03:52:28;;;;;;;6.83;4.00;;;;;;;21.10;59.97;98435.06;8414657;28;20239;-81
2022/06/28 03:56:31;;;;;;;7.63;3.77;;;;;;;21.07;59.84;98430.03;8415023;28;20231;-81
2022/06/28 04:00:34;;;;;;;7.57;3.43;;;;;;;21.11;59.60;98428.81;8415046;28;20429;-82
2022/06/28 04:04:37;;;;;;;9.67;4.00;;;;;;;21.00;59.66;98439.38;8414543;28;20227;-82
2022/06/28 04:08:41;;;;;;;9.03;4.50;;;;;;;21.06;59.54;98447.63;8414573;28;20586;-82
2022/06/28 04:12:44;;;;;;;9.17;3.90;;;;;;;21.11;59.85;98441.16;8414759;28;20225;-82
2022/06/28 04:16:46;;;;;;;6.30;3.90;;;;;;;21.20;59.41;98456.22;8414438;28;20230;-81
2022/06/28 04:20:49;;;;;;;8.33;3.83;;;;;;;21.17;59.34;98457.31;8414448;28;20253;-82
2022/06/28 04:24:54;;;;;;;6.77;3.63;;;;;;;21.24;58.88;98461.13;8414304;28;20223;-82
2022/06/28 04:28:57;;;;;;;5.13;3.83;;;;;;;20.88;60.00;98464.88;8413904;28;20532;-82
2022/06/28 04:32:59;;;;;;;5.10;3.73;;;;;;;21.13;59.18;98465.56;8413994;28;20230;-81
2022/06/28 04:37:03;;;;;;;8.90;4.10;;;;;;;21.16;59.04;98466.16;8413789;28;20222;-81
2022/06/28 04:41:07;;;;;;;7.50;4.30;;;;;;;21.22;58.84;98472.75;8399085;28;20234;-80
2022/06/28 04:45:11;;;;;;;11.43;4.90;;;;;;;21.06;59.50;98473.13;8380717;28;20230;-80
2022/06/28 04:49:13;;;;;;;7.63;4.10;;;;;;;21.01;59.93;98470.03;8379655;28;20235;-81
2022/06/28 04:53:16;;;;;;;9.43;4.17;;;;;;;20.89;59.88;98467.41;8380331;28;20231;-81
2022/06/28 04:57:20;;;;;;;5.43;3.20;;;;;;;21.02;58.98;98466.44;8380460;28;20231;-81
2022/06/28 05:01:23;;;;;;;7.07;3.70;;;;;;;20.64;60.51;98463.22;8380122;28;20223;-81
2022/06/28 05:05:26;;;;;;;6.37;3.10;;;;;;;21.06;58.82;98466.06;8379589;28;20232;-82
2022/06/28 05:09:29;;;;;;;7.10;3.00;;;;;;;20.85;58.79;98459.88;8379545;28;20235;-81
2022/06/28 05:13:39;;;;;;;5.03;2.97;;;;;;;20.88;58.48;98462.25;8379794;28;20243;-80
2022/06/28 05:17:42;;;;;;;6.17;2.90;;;;;;;21.00;58.45;98463.94;8379996;28;20247;-82
2022/06/28 05:21:45;;;;;;;3.53;2.60;;;;;;;21.17;57.73;98477.53;8379956;28;20228;-82
2022/06/28 05:25:47;;;;;;;5.07;2.60;;;;;;;21.29;57.27;98469.50;8379908;28;20257;-82
2022/06/28 05:29:52;;;;;;;4.80;2.23;;;;;;;21.33;57.56;98464.00;8379633;28;20241;-81
2022/06/28 05:33:55;;;;;;;4.37;2.50;;;;;;;21.41;57.57;98470.28;8379903;28;20258;-82
2022/06/28 05:38:00;;;;;;;3.27;2.70;;;;;;;21.57;57.17;98471.72;8379585;28;20239;-83
2022/06/28 05:42:02;;;;;;;3.43;2.17;;;;;;;21.65;56.34;98480.69;8379845;28;20234;-81
2022/06/28 05:46:07;;;;;;;4.77;2.43;;;;;;;21.72;56.51;98469.63;8380268;28;20237;-82
2022/06/28 05:50:10;;;;;;;3.80;2.40;;;;;;;21.89;56.15;98474.34;8380055;28;20231;-81
2022/06/28 05:54:12;;;;;;;2.90;2.40;;;;;;;21.89;55.71;98484.06;8380024;28;20580;-82
2022/06/28 05:58:15;;;;;;;4.60;2.30;;;;;;;22.05;55.33;98485.28;8380059;28;20237;-81
2022/06/28 06:02:19;;;;;;;3.07;2.10;;;;;;;22.19;54.59;98486.75;8391258;28;20249;-82
2022/06/28 06:06:24;;;;;;;2.20;2.00;;;;;;;22.28;54.50;98490.47;8418810;28;20250;-81
2022/06/28 06:10:27;;;;;;;2.90;2.00;;;;;;;22.38;52.74;98490.53;8419293;28;20231;-81
2022/06/28 06:14:30;;;;;;;4.80;2.10;;;;;;;22.47;54.09;98489.75;8419229;28;20231;-81
2022/06/28 06:18:34;;;;;;;2.73;1.90;;;;;;;22.45;53.69;98483.78;8419130;28;20557;-82
2022/06/28 06:22:37;;;;;;;3.07;1.80;;;;;;;22.61;53.22;98485.94;8419150;28;20238;-81
2022/06/28 06:26:41;;;;;;;1.93;1.70;;;;;;;22.75;52.38;98488.22;8418913;28;20237;-81
2022/06/28 06:30:44;;;;;;;2.20;1.53;;;;;;;22.62;51.77;98484.97;8418927;28;20230;-81
2022/06/28 06:34:48;;;;;;;2.07;1.80;;;;;;;22.89;52.32;98478.28;8418643;28;20227;-81
2022/06/28 06:38:52;;;;;;;3.07;1.70;;;;;;;22.98;51.62;98469.53;8418844;28;20226;-81
2022/06/28 06:42:54;;;;;;;3.17;1.47;;;;;;;23.05;50.59;98472.50;8418457;28;20249;-81
2022/06/28 06:46:57;;;;;;;2.30;1.67;;;;;;;23.22;50.89;98454.19;8418354;28;20249;-81
2022/06/28 06:51:02;;;;;;;2.67;1.63;;;;;;;23.23;49.60;98447.94;8418178;28;20227;-82
2022/06/28 06:55:06;;;;;;;3.17;1.80;;;;;;;23.46;49.94;98452.97;8418309;28;20525;-82
2022/06/28 06:59:11;;;;;;;1.90;1.50;;;;;;;23.64;49.59;98457.56;8417974;28;20425;-82
2022/06/28 07:03:14;;;;;;;3.03;1.70;;;;;;;23.66;49.40;98458.28;8417864;28;20228;-82
2022/06/28 07:07:19;;;;;;;3.03;1.27;;;;;;;23.65;48.55;98456.63;8417448;28;20235;-82
2022/06/28 07:11:21;;;;;;;2.37;1.50;;;;;;;23.68;47.83;98466.91;8417609;28;20549;-81
2022/06/28 07:15:24;;;;;;;1.80;1.30;;;;;;;23.96;47.57;98463.44;8416325;28;20231;-81
2022/06/28 07:19:27;;;;;;;2.20;1.60;;;;;;;24.12;46.43;98451.44;8417442;28;20261;-82
2022/06/28 07:23:31;;;;;;;1.90;1.40;;;;;;;24.15;44.53;98456.44;8417223;28;20229;-82
2022/06/28 07:27:34;;;;;;;1.20;1.10;;;;;;;24.49;44.82;98458.59;8417041;28;20232;-82
2022/06/28 07:31:37;;;;;;;5.23;1.40;;;;;;;24.71;44.20;98466.22;8416964;28;20231;-82
2022/06/28 07:35:39;;;;;;;2.87;1.50;;;;;;;24.75;44.79;98477.31;8416822;28;20229;-81
2022/06/28 07:39:44;;;;;;;3.87;1.33;;;;;;;25.14;43.05;98469.22;8416628;28;20253;-81
2022/06/28 07:43:47;;;;;;;1.93;1.27;;;;;;;25.33;40.48;98465.63;8416437;28;20252;-82
2022/06/28 07:47:49;;;;;;;4.50;1.10;;;;;;;25.52;40.49;98454.88;8416242;28;20238;-82
2022/06/28 07:56:19;;;;;;;2.23;1.00;;;;;;;26.02;38.16;98442.06;8398874;28;20290;-82
2022/06/28 08:00:22;;;;;;;3.63;1.40;;;;;;;26.55;43.97;98456.19;8388151;28;20242;-83
2022/06/28 08:04:25;;;;;;;7.13;1.40;;;;;;;26.49;41.95;98444.38;8408275;28;20227;-85
2022/06/28 08:08:28;;;;;;;2.93;1.40;;;;;;;26.59;39.76;98437.13;8415954;28;20311;-87
2022/06/28 08:12:32;;;;;;;2.83;1.60;;;;;;;26.70;38.67;98447.47;8415953;28;20233;-89
2022/06/28 08:16:35;;;;;;;4.50;1.50;;;;;;;26.48;37.57;98448.00;8415493;28;20415;-89
2022/06/28 08:20:38;;;;;;;2.50;1.17;;;;;;;26.48;36.41;98440.88;8415745;28;20235;-87
2022/06/28 08:24:41;;;;;;;2.07;1.17;;;;;;;26.72;35.73;98456.13;8415282;28;20291;-83
2022/06/28 08:28:45;;;;;;;2.03;1.10;;;;;;;26.84;35.97;98469.13;8415275;28;20412;-86
2022/06/28 08:32:49;;;;;;;1.93;1.10;;;;;;;27.03;34.32;98463.53;8415229;28;20223;-89
2022/06/28 08:36:51;;;;;;;2.73;1.00;;;;;;;26.81;35.69;98464.97;8415439;28;20224;-85
2022/06/28 08:40:54;;;;;;;2.00;0.93;;;;;;;27.15;34.35;98453.47;8415362;28;20515;-88
2022/06/28 08:45:00;;;;;;;2.57;1.03;;;;;;;27.01;34.09;98443.44;8415103;28;20229;-86
2022/06/28 08:49:05;;;;;;;2.07;1.20;;;;;;;27.56;32.85;98440.25;8415081;28;20569;-87
2022/06/28 08:53:10;;;;;;;1.37;1.00;;;;;;;27.72;32.72;98435.94;8415012;28;20523;-86
2022/06/28 08:57:13;;;;;;;2.47;1.17;;;;;;;27.71;31.41;98424.50;8415410;28;20233;-88
2022/06/28 09:01:17;;;;;;;2.00;1.00;;;;;;;28.18;31.06;98421.16;8415050;28;20226;-89
2022/06/28 09:05:22;;;;;;;2.37;1.10;;;;;;;28.16;30.58;98406.31;8414879;28;20242;-88
2022/06/28 09:09:25;;;;;;;3.10;1.20;;;;;;;28.29;31.23;98406.63;8414189;28;20234;-89
2022/06/28 09:13:28;;;;;;;3.10;1.00;;;;;;;27.65;32.60;98407.34;8392004;28;20246;-90
2022/06/28 09:17:34;;;;;;;4.73;1.50;;;;;;;28.44;32.64;98415.59;8382042;28;20238;-90
2022/06/28 09:21:42;;;;;;;1.70;1.13;;;;;;;28.70;31.43;98406.53;8387583;28;20227;-93
2022/06/28 09:25:49;;;;;;;4.87;1.20;;;;;;;28.93;30.57;98411.09;8381624;28;20230;-89
2022/06/28 09:29:52;;;;;;;1.50;1.00;;;;;;;28.43;29.60;98411.25;8381619;28;20437;-92
2022/06/28 09:34:07;;;;;;;2.20;1.07;;;;;;;29.15;29.67;98415.69;8381253;28;20228;-92
2022/06/28 09:38:10;;;;;;;2.33;0.90;;;;;;;29.65;28.71;98412.66;8386552;28;20225;-93
2022/06/28 09:42:13;;;;;;;3.60;1.20;;;;;;;29.78;29.21;98395.06;8389112;28;20236;-90
2022/06/28 09:46:19;;;;;;;2.63;1.07;;;;;;;29.54;27.96;98385.38;8415543;28;20241;-86
2022/06/28 09:50:24;;;;;;;4.60;1.00;;;;;;;30.17;28.81;98383.31;8420782;28;20413;-87
2022/06/28 09:54:28;;;;;;;4.50;0.90;;;;;;;29.95;26.71;98392.22;8421188;28;20417;-84
2022/06/28 09:58:31;;;;;;;2.07;1.00;;;;;;;29.27;27.17;98378.75;8421429;28;20231;-84
2022/06/28 10:02:34;;;;;;;4.83;1.07;;;;;;;29.11;28.38;98366.34;8421843;28;20230;-85
2022/06/28 10:06:39;;;;;;;4.17;1.30;;;;;;;28.69;29.29;98366.72;8420333;28;20248;-83
2022/06/28 10:10:42;;;;;;;3.37;1.20;;;;;;;28.03;31.13;98351.81;8420131;28;20248;-87
2022/06/28 10:15:01;;;;;;;3.97;1.00;;;;;;;27.72;31.86;98342.84;8421027;28;20453;-89
2022/06/28 10:19:04;;;;;;;1.30;1.00;;;;;;;27.56;32.25;98352.50;8420576;28;20224;-91
2022/06/28 10:23:26;;;;;;;7.67;1.60;;;;;;;27.45;32.34;98355.47;8420718;28;20226;-90
2022/06/28 10:27:30;;;;;;;3.10;1.40;;;;;;;27.23;32.98;98359.63;8420115;28;20235;-90
2022/06/28 10:31:40;;;;;;;2.07;0.90;;;;;;;27.06;32.18;98367.56;8425219;28;20250;-89
2022/06/28 10:35:58;;;;;;;4.10;1.00;;;;;;;27.05;32.79;98378.34;8429617;28;20237;-85
2022/06/28 10:40:32;;;;;;;2.53;1.07;;;;;;;27.08;32.15;98373.53;8429176;28;20392;-87
2022/06/28 10:44:47;;;;;;;3.63;1.20;;;;;;;27.15;32.57;98362.25;8424720;28;20228;-87
2022/06/28 10:49:04;;;;;;;7.67;1.70;;;;;;;27.40;31.55;98356.00;8403069;28;20235;-83
2022/06/28 10:53:07;;;;;;;5.83;1.20;;;;;;;27.93;31.28;98353.81;8390124;28;20236;-86
2022/06/28 10:57:22;;;;;;;2.80;1.30;;;;;;;28.06;31.79;98345.28;8390196;28;20234;-86
2022/06/28 11:01:57;;;;;;;2.10;1.00;;;;;;;28.46;30.27;98343.50;8406032;28;20230;-85
2022/06/28 11:06:01;;;;;;;3.93;1.10;;;;;;;28.68;31.17;98349.94;8385523;28;20230;-87
2022/06/28 11:10:11;;;;;;;1.77;1.10;;;;;;;28.64;29.47;98344.13;8385271;28;20245;-87
2022/06/28 11:14:31;;;;;;;2.07;1.13;;;;;;;28.69;30.23;98342.75;8385583;28;20233;-88
2022/06/28 11:18:38;;;;;;;2.97;1.17;;;;;;;28.59;29.84;98337.66;8385019;28;20243;-86
2022/06/28 11:22:42;;;;;;;4.07;1.33;;;;;;;28.23;27.91;98346.91;8386011;28;20239;-86
2022/06/28 11:31:07;;;;;;;1.73;1.20;;;;;;;29.19;29.85;98338.81;8384466;28;20242;-84
2022/06/28 11:35:12;;;;;;;5.77;1.30;;;;;;;29.16;28.98;98316.00;8383905;28;20231;-86
2022/06/28 11:39:19;;;;;;;2.40;1.10;;;;;;;29.31;28.50;98320.56;8383785;28;20230;-83
2022/06/28 11:43:25;;;;;;;3.53;1.20;;;;;;;29.27;27.65;98316.59;8384334;28;20225;-84
2022/06/28 11:47:30;;;;;;;1.37;1.03;;;;;;;29.12;28.47;98319.16;8384856;28;20238;-88
2022/06/28 11:51:33;;;;;;;3.10;1.50;;;;;;;28.91;26.75;98296.66;8385646;28;20236;-89
2022/06/28 11:55:38;;;;;;;10.37;1.60;;;;;;;28.63;28.45;98285.66;8367823;28;20248;-87
2022/06/28 11:59:56;;;;;;;3.50;1.30;;;;;;;29.06;28.52;98291.38;8385761;28;20262;-91
2022/06/28 12:04:02;;;;;;;3.30;1.10;;;;;;;29.10;28.55;98295.34;8385467;28;20227;-93
2022/06/28 12:08:07;;;;;;;3.37;0.93;;;;;;;29.24;28.24;98283.09;8384738;28;20252;-89
2022/06/28 12:12:10;;;;;;;5.70;1.37;;;;;;;29.56;27.19;98265.13;8384368;28;20239;-89
2022/06/28 12:16:13;;;;;;;2.67;1.17;;;;;;;29.01;26.89;98265.25;8387261;28;20233;-93
2022/06/28 12:20:18;;;;;;;3.33;1.20;;;;;;;29.03;27.50;98259.75;8385696;28;20231;-90
2022/06/28 12:24:20;;;;;;;2.27;1.03;;;;;;;29.06;26.38;98254.06;8384995;28;20243;-91
2022/06/28 12:28:23;;;;;;;7.07;1.10;;;;;;;28.77;26.10;98268.09;8397082;28;20239;-93
2022/06/28 12:32:27;;;;;;;5.90;1.30;;;;;;;28.98;26.53;98262.97;8420485;28;20246;-93
2022/06/28 12:36:52;;;;;;;2.53;1.10;;;;;;;29.17;27.80;98266.19;8418976;28;20247;-93
2022/06/28 12:40:55;;;;;;;1.30;1.20;;;;;;;29.54;27.69;98243.97;8418702;28;20223;-92
2022/06/28 12:45:00;;;;;;;2.77;1.10;;;;;;;29.09;26.19;98258.19;8417592;28;20407;-89
2022/06/28 12:49:03;;;;;;;5.60;1.37;;;;;;;28.66;26.04;98256.84;8417051;28;20226;-83
2022/06/28 12:53:08;;;;;;;2.83;0.83;;;;;;;28.99;27.79;98261.09;8415682;28;20531;-79
2022/06/28 12:57:11;;;;;;;2.20;1.00;;;;;;;29.10;26.84;98250.03;8415210;28;20227;-82
2022/06/28 13:01:14;;;;;;;2.07;1.07;;;;;;;29.10;28.48;98241.22;8417749;28;20234;-94
2022/06/28 13:05:17;;;;;;;1.77;1.03;;;;;;;29.44;26.47;98228.25;8419500;28;20249;-87
2022/06/28 13:09:22;;;;;;;2.13;1.10;;;;;;;28.98;26.84;98228.31;8387055;28;20232;-88
2022/06/28 13:13:25;;;;;;;1.53;1.00;;;;;;;28.72;29.37;98226.00;8387482;28;20538;-90
2022/06/28 13:17:28;;;;;;;1.83;1.00;;;;;;;29.01;29.18;98224.44;8388914;28;20235;-92
2022/06/28 13:21:30;;;;;;;2.47;1.33;;;;;;;28.73;27.86;98224.16;8387095;28;20239;-91
2022/06/28 13:25:35;;;;;;;2.53;1.10;;;;;;;28.62;28.61;98220.09;8386490;28;20224;-90
2022/06/28 13:29:38;;;;;;;4.13;1.30;;;;;;;28.75;28.04;98215.00;8408759;28;20227;-92
2022/06/28 13:33:40;;;;;;;3.27;1.10;;;;;;;28.77;29.97;98218.31;8418657;28;20237;-92
2022/06/28 13:37:43;;;;;;;1.77;1.00;;;;;;;28.97;30.93;98199.97;8417258;28;20234;-80
2022/06/28 13:41:48;;;;;;;1.90;1.23;;;;;;;29.12;29.75;98192.00;8417514;28;20226;-91
2022/06/28 13:45:51;;;;;;;3.77;1.20;;;;;;;29.11;30.54;98184.19;8417308;28;20233;-89
2022/06/28 13:49:53;;;;;;;3.37;1.20;;;;;;;28.81;30.25;98190.28;8415367;28;20226;-89
2022/06/28 13:53:56;;;;;;;3.30;1.03;;;;;;;29.29;30.41;98186.56;8416050;28;20232;-89
2022/06/28 13:58:00;;;;;;;2.33;1.10;;;;;;;29.39;29.96;98177.25;8415567;28;20233;-89
2022/06/28 14:02:04;;;;;;;2.37;1.20;;;;;;;29.61;30.59;98169.38;8414351;28;20233;-89
2022/06/28 14:06:07;;;;;;;1.50;1.10;;;;;;;29.79;30.21;98153.00;8414718;28;20229;-89
2022/06/28 14:10:10;;;;;;;2.77;1.10;;;;;;;29.80;30.43;98149.31;8413955;28;20233;-89
2022/06/28 14:14:15;;;;;;;2.80;1.20;;;;;;;29.73;30.26;98140.41;8416440;28;20227;-89
2022/06/28 14:18:18;;;;;;;2.80;1.30;;;;;;;29.89;30.43;98134.88;8416980;28;20233;-88
2022/06/28 14:22:22;;;;;;;2.90;1.30;;;;;;;30.02;29.73;98135.00;8417562;28;20238;-88
2022/06/28 14:26:34;;;;;;;4.10;1.30;;;;;;;29.84;28.41;98139.13;8419857;28;20237;-88
2022/06/28 14:30:39;;;;;;;4.63;1.13;;;;;;;29.63;28.98;98130.81;8419738;28;20230;-88
2022/06/28 14:34:42;;;;;;;1.80;1.30;;;;;;;29.97;29.34;98123.25;8422944;28;20263;-92
2022/06/28 14:38:45;;;;;;;3.73;1.53;;;;;;;29.22;27.80;98119.78;8422156;28;20225;-93
2022/06/28 14:42:47;;;;;;;6.50;1.30;;;;;;;29.91;30.09;98113.31;8409327;28;20230;-90
2022/06/28 14:46:52;;;;;;;3.17;1.23;;;;;;;30.01;28.78;98111.19;8388151;28;20241;-90
2022/06/28 14:50:55;;;;;;;2.60;1.20;;;;;;;29.61;27.55;98095.50;8388784;28;20243;-89
2022/06/28 14:54:58;;;;;;;3.10;1.10;;;;;;;29.81;29.99;98084.25;8387826;28;20243;-90
2022/06/28 14:59:02;;;;;;;4.27;1.40;;;;;;;29.73;30.63;98074.50;8387914;28;20227;-88
2022/06/28 15:03:06;;;;;;;2.27;1.10;;;;;;;29.61;29.35;98063.47;8387873;28;20335;-89
2022/06/28 15:07:09;;;;;;;2.13;1.30;;;;;;;29.48;29.40;98070.50;8388109;28;20235;-90
2022/06/28 15:11:13;;;;;;;3.37;1.20;;;;;;;29.32;29.51;98063.50;8387524;28;20320;-90
2022/06/28 15:15:15;;;;;;;1.60;1.33;;;;;;;29.13;29.39;98068.41;8387283;28;20237;-90
2022/06/28 15:19:19;;;;;;;4.60;1.73;;;;;;;29.05;30.90;98065.78;8386015;28;20231;-90
2022/06/28 15:32:23;;;;;;;4.00;1.43;;;;;;;28.76;31.57;98075.41;8417608;28;20235;-88
2022/06/28 15:36:27;;;;;;;4.70;1.40;;;;;;;29.08;30.63;98072.59;8394404;28;20250;-87
2022/06/28 15:40:30;;;;;;;2.03;1.30;;;;;;;28.97;30.16;98074.69;8384023;28;20232;-87
2022/06/28 15:44:33;;;;;;;1.63;1.30;;;;;;;28.91;30.53;98058.63;8384752;28;20246;-87
2022/06/28 15:48:36;;;;;;;3.60;1.60;;;;;;;28.77;30.80;98063.75;8383995;28;20247;-89
2022/06/28 15:52:40;;;;;;;4.43;1.30;;;;;;;28.64;30.43;98059.03;8383531;28;20240;-86
2022/06/28 15:56:43;;;;;;;1.73;1.20;;;;;;;28.29;30.48;98068.47;8383579;28;20228;-86
2022/06/28 16:00:46;;;;;;;2.50;1.77;;;;;;;28.37;30.73;98059.56;8383307;28;20235;-89
2022/06/28 16:04:49;;;;;;;2.50;1.50;;;;;;;28.15;30.78;98050.63;8383614;28;20401;-86
2022/06/28 16:08:53;;;;;;;5.03;1.40;;;;;;;28.00;30.43;98042.56;8383519;28;20238;-84
2022/06/28 16:12:56;;;;;;;3.60;2.20;;;;;;;27.57;31.53;98044.78;8410059;28;20384;-86
2022/06/28 16:16:59;;;;;;;3.70;1.60;;;;;;;27.41;31.35;98041.22;8416228;28;20230;-86
2022/06/28 16:21:02;;;;;;;1.93;1.50;;;;;;;27.33;33.41;98045.75;8416404;28;20232;-87
2022/06/28 16:25:07;;;;;;;3.77;1.83;;;;;;;27.38;33.73;98041.56;8416383;28;20238;-86
2022/06/28 16:29:10;;;;;;;2.10;1.60;;;;;;;27.38;34.49;98041.56;8415866;28;20240;-89
2022/06/28 16:33:13;;;;;;;2.90;2.13;;;;;;;26.94;35.69;98043.84;8416091;28;20234;-89
2022/06/28 16:37:16;;;;;;;3.37;2.20;;;;;;;26.81;35.88;98041.75;8415800;28;20228;-91
2022/06/28 16:41:20;;;;;;;6.33;2.13;;;;;;;26.90;35.90;98030.06;8415886;28;20405;-87
2022/06/28 16:45:23;;;;;;;3.07;1.73;;;;;;;27.05;35.56;98024.88;8403268;28;20540;-88
2022/06/28 16:49:25;;;;;;;2.70;1.90;;;;;;;26.91;35.87;98018.47;8415419;28;20237;-85
2022/06/28 16:53:29;;;;;;;4.17;2.40;;;;;;;27.02;36.03;98010.13;8416448;28;20434;-83
2022/06/28 16:57:33;;;;;;;4.07;2.87;;;;;;;27.00;35.98;98005.97;8405428;28;20292;-82
2022/06/28 17:01:36;;;;;;;3.57;2.50;;;;;;;26.86;35.86;98002.19;8415463;28;20512;-81
2022/06/28 17:05:39;;;;;;;3.03;2.37;;;;;;;27.23;36.02;97985.59;8414628;28;20230;-78
2022/06/28 17:09:41;;;;;;;3.23;2.40;;;;;;;26.85;36.57;97980.13;8414394;28;20256;-78
2022/06/28 17:13:46;;;;;;;3.27;2.70;;;;;;;26.86;36.17;97981.75;8380734;28;20417;-78
2022/06/28 17:17:49;;;;;;;6.40;2.87;;;;;;;26.74;36.69;97963.72;8380791;28;20237;-82
2022/06/28 17:21:52;;;;;;;5.70;2.50;;;;;;;26.84;36.63;97967.81;8381334;28;20235;-83
2022/06/28 17:25:55;;;;;;;3.97;2.80;;;;;;;26.83;36.47;97962.69;8381238;28;20235;-83
2022/06/28 17:29:59;;;;;;;3.60;2.50;;;;;;;26.74;36.90;97953.09;8397429;28;20233;-82
2022/06/28 17:34:02;;;;;;;5.13;2.60;;;;;;;26.79;37.23;97943.63;8413840;28;20559;-83
2022/06/28 17:38:04;;;;;;;4.43;2.83;;;;;;;26.73;37.07;97938.97;8413540;28;20233;-82
2022/06/28 17:42:08;;;;;;;6.63;2.83;;;;;;;26.67;37.66;97937.84;8413210;28;20239;-81
2022/06/28 17:46:13;;;;;;;5.20;2.57;;;;;;;26.70;37.47;97936.69;8413825;28;20236;-82
2022/06/28 17:50:16;;;;;;;3.27;2.77;;;;;;;26.57;37.67;97925.72;8413909;28;20229;-86
2022/06/28 17:54:26;;;;;;;4.10;3.00;;;;;;;26.57;37.97;97926.56;8413122;28;20282;-78
2022/06/28 17:58:28;;;;;;;3.73;3.00;;;;;;;26.31;38.25;97922.31;8417860;28;20580;-80
2022/06/28 18:02:33;;;;;;;6.07;2.77;;;;;;;26.31;38.51;97924.13;8419664;28;20238;-76
2022/06/28 18:06:36;;;;;;;7.93;2.90;;;;;;;26.34;38.56;97915.84;8419798;28;20565;-77
2022/06/28 18:10:39;;;;;;;4.73;3.00;;;;;;;26.39;38.67;97926.78;8420346;28;20329;-78
2022/06/28 18:14:42;;;;;;;2.97;2.67;;;;;;;26.46;38.63;97934.88;8419141;28;20539;-77
2022/06/28 18:18:46;;;;;;;3.67;2.97;;;;;;;26.42;39.00;97930.91;8418775;28;20243;-76
2022/06/28 18:22:50;;;;;;;4.40;2.67;;;;;;;26.39;38.94;97933.88;8419045;28;20511;-76
2022/06/28 18:26:53;;;;;;;6.83;3.30;;;;;;;26.38;39.32;97929.59;8418837;28;20235;-77
2022/06/28 18:30:55;;;;;;;5.50;2.90;;;;;;;26.32;39.19;97947.03;8418572;28;20231;-79
2022/06/28 18:35:02;;;;;;;6.10;2.80;;;;;;;26.25;39.57;97952.16;8418618;28;20243;-79
2022/06/28 18:39:05;;;;;;;3.77;2.80;;;;;;;26.15;40.15;97948.88;8418628;28;20230;-78
2022/06/28 18:43:08;;;;;;;3.60;3.00;;;;;;;26.19;40.02;97946.72;8418659;28;20246;-78
2022/06/28 18:47:12;;;;;;;4.87;3.00;;;;;;;26.00;40.00;97946.06;8413036;28;20228;-77
2022/06/28 18:51:16;;;;;;;5.37;3.27;;;;;;;25.89;40.25;97936.59;8395684;28;20235;-78
2022/06/28 18:55:19;;;;;;;4.43;3.27;;;;;;;25.90;40.59;97934.75;8410532;28;20231;-78
2022/06/28 18:59:22;;;;;;;4.23;3.23;;;;;;;25.85;40.25;97929.13;8417471;28;20246;-77
2022/06/28 19:03:25;;;;;;;4.13;3.23;;;;;;;25.75;40.60;97932.75;8417881;28;20533;-77
2022/06/28 19:07:29;;;;;;;5.73;3.33;;;;;;;25.75;40.99;97938.06;8416968;28;20476;-77
2022/06/28 19:11:32;;;;;;;3.53;3.23;;;;;;;25.75;41.07;97940.72;8417278;28;20245;-77
2022/06/28 19:15:34;;;;;;;4.07;3.10;;;;;;;25.73;40.87;97944.53;8418719;28;20242;-78
2022/06/28 19:19:38;;;;;;;4.37;3.87;;;;;;;25.79;41.42;97941.22;8417449;28;20524;-78
2022/06/28 19:23:42;;;;;;;6.27;4.33;;;;;;;25.69;41.24;97948.50;8392195;28;20230;-77
2022/06/28 19:27:47;;;;;;;5.13;3.60;;;;;;;25.49;42.16;97950.63;8383724;28;20342;-77
2022/06/28 19:31:50;;;;;;;4.90;3.93;;;;;;;25.36;42.33;97946.66;8383616;28;20243;-77
2022/06/28 19:35:53;;;;;;;4.77;3.80;;;;;;;25.42;42.24;97950.47;8384831;28;20254;-77